createdAt,value
2018-07-04T00:02:10.975Z,100058.94
2018-07-04T00:07:32.464Z,100053.54
2018-07-04T00:12:53.801Z,100053.30
2018-07-04T00:18:15.346Z,100057.68
2018-07-04T00:23:36.646Z,100054.96
2018-07-04T00:28:58.089Z,100055.27
2018-07-04T00:34:19.525Z,100058.84
2018-07-04T00:39:40.974Z,100058.86
2018-07-04T00:45:02.602Z,100055.08
2018-07-04T00:50:25.509Z,100049.94
2018-07-04T00:55:47.025Z,100049.11
2018-07-04T01:01:08.581Z,100050.77
2018-07-04T01:06:30.021Z,100052.42
2018-07-04T01:11:51.660Z,100057.87
2018-07-04T01:17:13.117Z,100063.36
2018-07-04T01:22:34.513Z,100054.14
2018-07-04T01:27:56.101Z,100055.77
2018-07-04T01:33:17.354Z,100057.97
2018-07-04T01:38:38.914Z,100058.83
2018-07-04T01:44:00.374Z,100063.17
2018-07-04T01:49:21.886Z,100059.64
2018-07-04T01:54:43.406Z,100058.62
2018-07-04T02:00:04.813Z,100059.44
2018-07-04T02:05:25.982Z,100057.27
2018-07-04T02:10:41.489Z,100059.19
2018-07-04T02:16:03.017Z,100057.56
2018-07-04T02:21:24.522Z,100056.25
2018-07-04T02:26:46.198Z,100058.42
2018-07-04T02:32:08.155Z,100060.89
2018-07-04T02:37:29.513Z,100056.30
2018-07-04T02:42:51.044Z,100058.73
2018-07-04T02:48:12.481Z,100062.04
2018-07-04T02:53:34.118Z,100058.25
2018-07-04T02:58:55.553Z,100050.92
2018-07-04T03:04:16.773Z,100051.52
2018-07-04T03:09:38.594Z,100046.08
2018-07-04T03:14:59.970Z,100052.06
2018-07-04T03:20:21.307Z,100055.08
2018-07-04T03:25:42.730Z,100054.83
2018-07-04T03:31:04.370Z,100050.23
2018-07-04T03:36:25.786Z,100049.40
2018-07-04T03:41:41.180Z,100045.36
2018-07-04T03:46:56.760Z,100052.96
2018-07-04T03:52:18.309Z,100051.05
2018-07-04T03:57:34.036Z,100060.82
2018-07-04T04:02:55.535Z,100058.22
2018-07-04T04:08:16.993Z,100055.77
2018-07-04T04:13:38.498Z,100051.52
2018-07-04T04:18:59.984Z,100051.05
2018-07-04T04:24:21.283Z,100064.91
2018-07-04T04:29:42.565Z,100060.63
2018-07-04T04:35:04.100Z,100060.33
2018-07-04T04:40:25.518Z,100065.25
2018-07-04T04:45:46.858Z,100057.36
2018-07-04T04:51:08.272Z,100064.11
2018-07-04T04:56:29.823Z,100057.03
2018-07-04T05:01:51.255Z,100052.92
2018-07-04T05:07:12.633Z,100055.34
2018-07-04T05:12:34.057Z,100050.46
2018-07-04T05:17:55.673Z,100049.36
2018-07-04T05:23:17.011Z,100053.43
2018-07-04T05:28:38.539Z,100058.82
2018-07-04T05:33:59.872Z,100063.67
2018-07-04T05:39:21.381Z,100059.05
2018-07-04T05:44:42.938Z,100056.61
2018-07-04T05:50:04.338Z,100057.12
2018-07-04T05:55:25.614Z,100053.84
2018-07-04T06:00:46.958Z,100056.78
2018-07-04T06:06:08.271Z,100065.19
2018-07-04T06:11:29.796Z,100061.58
2018-07-04T06:16:51.286Z,100057.50
2018-07-04T06:22:12.697Z,100065.91
2018-07-04T06:27:34.122Z,100063.75
2018-07-04T06:32:55.453Z,100061.23
2018-07-04T06:37:58.584Z,100061.09
2018-07-04T06:43:01.455Z,100059.44
2018-07-04T06:48:04.576Z,100057.42
2018-07-04T06:53:07.724Z,100047.95
2018-07-04T06:58:10.626Z,100041.92
2018-07-04T07:03:32.357Z,100043.17
2018-07-04T07:08:53.693Z,100045.33
2018-07-04T07:14:15.140Z,100037.91
2018-07-04T07:19:36.770Z,100029.44
2018-07-04T07:24:58.421Z,100028.08
2018-07-04T07:30:20.155Z,100030.50
2018-07-04T07:35:41.485Z,100029.13
2018-07-04T07:41:02.856Z,100024.50
2018-07-04T07:46:24.282Z,100023.33
2018-07-04T07:51:45.777Z,100023.37
2018-07-04T07:57:07.146Z,100018.98
2018-07-04T08:02:28.697Z,100021.97
2018-07-04T08:07:50.110Z,100013.94
2018-07-04T08:13:11.549Z,100009.60
2018-07-04T08:18:32.981Z,100003.66
2018-07-04T08:23:54.410Z,100006.44
2018-07-04T08:29:15.792Z,99999.89
2018-07-04T08:34:37.330Z,99997.84
2018-07-04T08:39:58.873Z,100001.95
2018-07-04T08:45:20.258Z,99994.89
2018-07-04T08:50:41.826Z,99991.16
2018-07-04T08:55:57.649Z,99993.28
2018-07-04T09:01:19.045Z,99992.72
2018-07-04T09:06:40.598Z,99999.53
2018-07-04T09:12:01.987Z,99995.19
2018-07-04T09:17:23.563Z,99994.08
2018-07-04T09:22:39.137Z,99992.72
2018-07-04T09:28:00.420Z,99986.17
2018-07-04T09:33:21.910Z,99980.73
2018-07-04T09:38:43.297Z,99984.81
2018-07-04T09:44:05.017Z,99979.38
2018-07-04T09:49:20.676Z,99977.98
2018-07-04T09:54:42.158Z,99975.27
2018-07-04T10:00:03.755Z,99971.44
2018-07-04T10:05:25.389Z,99962.98
2018-07-04T10:10:46.781Z,99960.50
2018-07-04T10:16:08.452Z,99952.32
2018-07-04T10:21:29.938Z,99941.44
2018-07-04T10:26:51.506Z,99941.44
2018-07-04T10:32:12.826Z,99945.77
2018-07-04T10:37:28.338Z,99939.78
2018-07-04T10:42:49.678Z,99943.05
2018-07-04T10:48:11.006Z,99946.88
2018-07-04T10:53:32.731Z,99941.69
2018-07-04T10:58:54.252Z,99938.72
2018-07-04T11:04:15.566Z,99933.83
2018-07-04T11:09:36.950Z,99930.55
2018-07-04T11:14:59.273Z,99934.64
2018-07-04T11:20:20.597Z,99932.47
2018-07-04T11:25:42.223Z,99926.72
2018-07-04T11:31:03.837Z,99919.11
2018-07-04T11:36:25.314Z,99913.42
2018-07-04T11:41:46.863Z,99915.84
2018-07-04T11:46:49.785Z,99909.59
2018-07-04T11:51:52.965Z,99903.89
2018-07-04T11:56:55.885Z,99900.56
2018-07-04T12:01:58.871Z,99898.66
2018-07-04T12:07:11.846Z,99895.93
2018-07-04T12:12:14.781Z,99897.77
2018-07-04T12:17:17.717Z,99894.73
2018-07-04T12:22:20.673Z,99885.77
2018-07-04T12:27:23.700Z,99878.64
2018-07-04T12:32:26.641Z,99885.44
2018-07-04T12:37:29.536Z,99869.36
2018-07-04T12:42:32.440Z,99872.61
2018-07-04T12:47:35.434Z,99864.45
2018-07-04T12:52:38.507Z,99864.14
2018-07-04T12:58:00.030Z,99863.78
2018-07-04T13:03:22.006Z,99845.56
2018-07-04T13:08:37.540Z,99836.86
2018-07-04T13:13:58.941Z,99840.36
2018-07-04T13:19:20.618Z,99827.25
2018-07-04T13:24:42.175Z,99821.50
2018-07-04T13:30:03.660Z,99821.75
2018-07-04T13:35:25.732Z,99816.58
2018-07-04T13:40:47.164Z,99800.77
2018-07-04T13:46:08.605Z,99798.61
2018-07-04T13:51:30.169Z,99793.66
2018-07-04T13:56:51.718Z,99780.58
2018-07-04T14:02:13.211Z,99782.73
2018-07-04T14:07:28.704Z,99773.45
2018-07-04T14:12:50.355Z,99771.30
2018-07-04T14:18:11.862Z,99762.01
2018-07-04T14:23:33.502Z,99758.33
2018-07-04T14:28:54.867Z,99770.06
2018-07-04T14:34:16.687Z,99763.72
2018-07-04T14:39:32.038Z,99754.27
2018-07-04T14:44:53.415Z,99752.72
2018-07-04T14:50:09.443Z,99743.89
2018-07-04T14:55:31.084Z,99742.84
2018-07-04T15:00:52.473Z,99737.88
2018-07-04T15:06:14.128Z,99739.00
2018-07-04T15:11:35.628Z,99734.56
2018-07-04T15:16:57.073Z,99735.22
2018-07-04T15:22:18.454Z,99734.52
2018-07-04T15:27:39.934Z,99732.78
2018-07-04T15:33:01.463Z,99731.15
2018-07-04T15:38:22.854Z,99725.77
2018-07-04T15:43:38.462Z,99728.43
2018-07-04T15:48:59.806Z,99719.95
2018-07-04T15:54:21.348Z,99711.41
2018-07-04T15:59:42.788Z,99710.78
2018-07-04T16:05:04.378Z,99706.25
2018-07-04T16:10:25.641Z,99703.48
2018-07-04T16:15:47.013Z,99701.24
2018-07-04T16:21:08.522Z,99703.37
2018-07-04T16:26:30.009Z,99701.69
2018-07-04T16:31:51.604Z,99702.29
2018-07-04T16:37:13.194Z,99698.77
2018-07-04T16:42:34.650Z,99692.51
2018-07-04T16:47:56.097Z,99704.97
2018-07-04T16:53:11.552Z,99700.88
2018-07-04T16:58:32.974Z,99701.69
2018-07-04T17:03:54.466Z,99686.70
2018-07-04T17:09:16.439Z,99697.36
2018-07-04T17:14:37.814Z,99687.55
2018-07-04T17:19:59.432Z,99690.91
2018-07-04T17:25:20.998Z,99686.57
2018-07-04T17:30:42.300Z,99701.56
2018-07-04T17:36:03.696Z,99699.95
2018-07-04T17:41:25.417Z,99695.59
2018-07-04T17:46:46.874Z,99698.31
2018-07-04T17:52:08.429Z,99690.03
2018-07-04T17:57:30.261Z,99688.23
2018-07-04T18:02:51.750Z,99688.98
2018-07-04T18:08:13.409Z,99690.95
2018-07-04T18:13:34.799Z,99687.06
2018-07-04T18:18:57.726Z,99681.25
2018-07-04T18:24:19.720Z,99689.55
2018-07-04T18:29:41.128Z,99691.08
2018-07-04T18:35:02.692Z,99689.67
2018-07-04T18:40:25.336Z,99687.51
2018-07-04T18:45:46.990Z,99686.39
2018-07-04T18:51:08.499Z,99689.84
2018-07-04T18:56:30.130Z,99689.84
2018-07-04T19:01:46.976Z,99699.46
2018-07-04T19:07:08.497Z,99707.64
2018-07-04T19:12:30.093Z,99714.21
2018-07-04T19:17:51.437Z,99711.73
2018-07-04T19:23:13.113Z,99713.70
2018-07-04T19:28:34.868Z,99720.27
2018-07-04T19:33:56.550Z,99721.95
2018-07-04T19:39:18.350Z,99718.18
2018-07-04T19:44:39.798Z,99720.10
2018-07-04T19:50:01.220Z,99732.66
2018-07-04T19:55:22.634Z,99733.91
2018-07-04T20:00:44.846Z,99743.41
2018-07-04T20:06:06.270Z,99749.14
2018-07-04T20:11:27.717Z,99749.97
2018-07-04T20:16:49.334Z,99752.14
2018-07-04T20:22:11.605Z,99757.03
2018-07-04T20:27:33.097Z,99749.66
2018-07-04T20:32:54.582Z,99750.14
2018-07-04T20:38:15.929Z,99746.12
2018-07-04T20:43:37.748Z,99742.28
2018-07-04T20:48:59.419Z,99749.02
2018-07-04T20:54:21.288Z,99750.39
2018-07-04T20:59:36.800Z,99750.95
2018-07-04T21:04:58.521Z,99756.72
2018-07-04T21:10:19.883Z,99744.56
2018-07-04T21:15:41.218Z,99746.48
2018-07-04T21:21:02.773Z,99743.84
2018-07-04T21:26:24.213Z,99748.77
2018-07-04T21:31:45.800Z,99748.28
2018-07-04T21:37:07.201Z,99746.16
2018-07-04T21:42:28.527Z,99738.55
2018-07-04T21:47:50.067Z,99738.37
2018-07-04T21:53:11.542Z,99737.30
2018-07-04T21:58:33.113Z,99737.92
2018-07-04T22:03:54.594Z,99740.69
2018-07-04T22:09:15.985Z,99743.73
2018-07-04T22:14:37.471Z,99741.08
2018-07-04T22:19:58.996Z,99737.83
2018-07-04T22:25:20.277Z,99740.38
2018-07-04T22:30:41.813Z,99742.03
2018-07-04T22:35:57.304Z,99748.87
2018-07-04T22:41:18.806Z,99739.97
2018-07-04T22:46:40.170Z,99736.17
2018-07-04T22:52:01.494Z,99736.48
2018-07-04T22:57:23.052Z,99736.55
2018-07-04T23:02:44.505Z,99742.59
2018-07-04T23:08:05.993Z,99737.70
2018-07-04T23:13:27.432Z,99741.06
2018-07-04T23:18:48.944Z,99738.93
2018-07-04T23:24:10.202Z,99731.31
2018-07-04T23:29:31.818Z,99726.74
2018-07-04T23:34:53.247Z,99731.67
2018-07-04T23:40:14.645Z,99727.34
2018-07-04T23:45:36.018Z,99729.02
2018-07-04T23:50:57.373Z,99736.13
2018-07-04T23:56:18.954Z,99728.25
